createdAt,value
2022-12-11T00:00:43.696Z,38.20
2022-12-11T00:01:43.742Z,39.80
2022-12-11T00:02:43.697Z,35.90
2022-12-11T00:03:43.653Z,39.10
2022-12-11T00:04:43.622Z,38.60
2022-12-11T00:05:43.621Z,40.00
2022-12-11T00:06:43.624Z,36.70
2022-12-11T00:07:43.608Z,41.20
2022-12-11T00:08:43.561Z,42.10
2022-12-11T00:09:43.553Z,39.00
2022-12-11T00:10:43.540Z,42.60
2022-12-11T00:11:43.552Z,41.10
2022-12-11T00:12:43.504Z,41.70
2022-12-11T00:13:43.493Z,44.10
2022-12-11T00:14:43.482Z,46.70
2022-12-11T00:15:43.440Z,45.90
2022-12-11T00:16:43.525Z,44.80
2022-12-11T00:17:43.413Z,44.80
2022-12-11T00:18:43.405Z,42.80
2022-12-11T00:19:43.379Z,45.00
2022-12-11T00:20:43.381Z,41.50
2022-12-11T00:21:43.377Z,41.30
2022-12-11T00:22:43.319Z,42.90
2022-12-11T00:23:43.307Z,44.70
2022-12-11T00:24:43.288Z,43.40
2022-12-11T00:25:43.262Z,44.10
2022-12-11T00:26:43.323Z,44.10
2022-12-11T00:27:43.221Z,46.50
2022-12-11T00:28:43.209Z,46.80
2022-12-11T00:29:43.188Z,41.50
2022-12-11T00:30:43.173Z,44.50
2022-12-11T00:31:43.207Z,39.10
2022-12-11T00:32:44.149Z,41.60
2022-12-11T00:33:43.151Z,40.80
2022-12-11T00:34:43.103Z,42.70
2022-12-11T00:35:43.103Z,42.70
2022-12-11T00:36:43.109Z,43.50
2022-12-11T00:37:43.070Z,44.60
2022-12-11T00:38:43.039Z,41.00
2022-12-11T00:39:43.026Z,41.70
2022-12-11T00:40:43.012Z,42.50
2022-12-11T00:41:43.024Z,41.90
2022-12-11T00:42:42.964Z,43.90
2022-12-11T00:43:42.961Z,45.80
2022-12-11T00:44:43.028Z,42.50
2022-12-11T00:45:42.970Z,42.40
2022-12-11T00:46:42.925Z,40.50
2022-12-11T00:47:42.912Z,41.40
2022-12-11T00:48:42.869Z,39.10
2022-12-11T00:49:46.552Z,38.40
2022-12-11T00:50:44.831Z,38.80
2022-12-11T00:51:42.844Z,40.20
2022-12-11T00:52:42.808Z,37.50
2022-12-11T00:53:42.779Z,38.20
2022-12-11T00:54:42.778Z,39.30
2022-12-11T00:55:42.733Z,36.90
2022-12-11T00:56:42.754Z,39.00
2022-12-11T00:57:42.718Z,37.00
2022-12-11T00:58:42.696Z,40.60
2022-12-11T00:59:42.656Z,36.60
2022-12-11T01:00:42.661Z,38.40
2022-12-11T01:01:42.718Z,37.40
2022-12-11T01:02:42.706Z,39.90
2022-12-11T01:03:42.599Z,38.80
2022-12-11T01:04:42.584Z,42.60
2022-12-11T01:05:42.647Z,40.20
2022-12-11T01:06:42.609Z,39.90
2022-12-11T01:07:42.559Z,38.80
2022-12-11T01:08:42.510Z,38.60
2022-12-11T01:09:42.510Z,35.30
2022-12-11T01:10:42.504Z,36.60
2022-12-11T01:11:42.485Z,37.80
2022-12-11T01:12:42.437Z,37.30
2022-12-11T01:13:42.419Z,37.00
2022-12-11T01:14:42.400Z,39.90
2022-12-11T01:15:42.397Z,38.90
2022-12-11T01:16:42.468Z,34.30
2022-12-11T01:17:42.357Z,34.90
2022-12-11T01:18:42.333Z,33.90
2022-12-11T01:19:42.326Z,32.30
2022-12-11T01:20:42.298Z,29.30
2022-12-11T01:21:42.311Z,33.90
2022-12-11T01:22:42.263Z,36.40
2022-12-11T01:23:42.257Z,35.30
2022-12-11T01:24:42.223Z,34.40
2022-12-11T01:25:42.245Z,39.40
2022-12-11T01:26:42.244Z,38.20
2022-12-11T01:27:42.180Z,37.10
2022-12-11T01:28:42.174Z,38.00
2022-12-11T01:29:42.147Z,35.40
2022-12-11T01:30:42.193Z,38.80
2022-12-11T01:31:42.147Z,37.20
2022-12-11T01:32:42.102Z,36.20
2022-12-11T01:33:42.079Z,35.40
2022-12-11T01:34:42.082Z,38.80
2022-12-11T01:35:42.034Z,37.90
2022-12-11T01:36:42.046Z,33.40
2022-12-11T01:37:42.048Z,38.20
2022-12-11T01:38:41.997Z,34.20
2022-12-11T01:39:41.965Z,33.90
2022-12-11T01:40:41.962Z,32.60
2022-12-11T01:41:41.933Z,35.80
2022-12-11T01:42:41.939Z,31.10
2022-12-11T01:43:41.899Z,29.30
2022-12-11T01:44:41.894Z,33.20
2022-12-11T01:45:41.958Z,33.20
2022-12-11T01:46:41.853Z,31.20
2022-12-11T01:47:41.852Z,35.10
2022-12-11T01:48:42.464Z,31.80
2022-12-11T01:49:42.790Z,31.20
2022-12-11T01:50:41.773Z,36.70
2022-12-11T01:51:41.744Z,32.70
2022-12-11T01:52:41.760Z,33.90
2022-12-11T01:53:41.712Z,31.60
2022-12-11T01:54:41.693Z,32.00
2022-12-11T01:55:42.673Z,32.50
2022-12-11T01:56:41.663Z,30.80
2022-12-11T01:57:41.692Z,32.30
2022-12-11T01:58:41.626Z,34.00
2022-12-11T01:59:41.602Z,34.50
2022-12-11T02:00:41.592Z,38.70
2022-12-11T02:01:41.615Z,38.40
2022-12-11T02:02:41.618Z,36.80
2022-12-11T02:03:41.533Z,41.30
2022-12-11T02:04:41.529Z,36.60
2022-12-11T02:05:41.513Z,36.80
2022-12-11T02:06:41.488Z,36.10
2022-12-11T02:07:41.501Z,43.10
2022-12-11T02:08:41.451Z,35.80
2022-12-11T02:09:41.432Z,38.00
2022-12-11T02:10:41.413Z,41.00
2022-12-11T02:11:41.400Z,45.20
2022-12-11T02:12:41.410Z,38.70
2022-12-11T02:13:41.365Z,42.80
2022-12-11T02:14:41.336Z,40.30
2022-12-11T02:15:41.325Z,43.80
2022-12-11T02:16:41.400Z,46.10
2022-12-11T02:17:41.319Z,42.10
2022-12-11T02:18:41.273Z,41.10
2022-12-11T02:19:41.270Z,40.90
2022-12-11T02:20:41.240Z,44.30
2022-12-11T02:21:41.222Z,44.40
2022-12-11T02:22:41.249Z,43.80
2022-12-11T02:23:41.195Z,40.30
2022-12-11T02:24:41.184Z,44.00
2022-12-11T02:25:41.159Z,41.50
2022-12-11T02:26:41.145Z,41.50
2022-12-11T02:27:41.161Z,38.90
2022-12-11T02:28:41.115Z,45.30
2022-12-11T02:29:41.087Z,43.40
2022-12-11T02:30:42.048Z,41.80
2022-12-11T02:31:41.103Z,42.80
2022-12-11T02:32:41.066Z,41.10
2022-12-11T02:33:41.008Z,39.60
2022-12-11T02:34:41.004Z,39.40
2022-12-11T02:35:40.976Z,36.10
2022-12-11T02:36:41.958Z,37.60
2022-12-11T02:37:40.968Z,36.60
2022-12-11T02:38:40.926Z,36.40
2022-12-11T02:39:40.911Z,37.30
2022-12-11T02:40:40.893Z,36.00
2022-12-11T02:41:40.873Z,38.30
2022-12-11T02:42:40.962Z,39.30
2022-12-11T02:43:40.836Z,38.60
2022-12-11T02:44:40.819Z,32.70
2022-12-11T02:45:40.862Z,32.80
2022-12-11T02:46:40.794Z,35.60
2022-12-11T02:47:40.806Z,33.20
2022-12-11T02:48:40.769Z,34.30
2022-12-11T02:49:40.740Z,39.60
2022-12-11T02:50:40.715Z,33.50
2022-12-11T02:51:40.708Z,31.50
2022-12-11T02:52:40.712Z,34.00
2022-12-11T02:53:40.669Z,31.00
2022-12-11T02:54:40.651Z,33.70
2022-12-11T02:55:40.639Z,37.40
2022-12-11T02:56:40.615Z,34.40
2022-12-11T02:57:40.627Z,36.80
2022-12-11T02:58:41.577Z,36.70
2022-12-11T02:59:40.561Z,34.50
2022-12-11T03:00:40.542Z,35.80
2022-12-11T03:01:40.552Z,37.40
2022-12-11T03:02:40.592Z,35.90
2022-12-11T03:03:40.483Z,34.10
2022-12-11T03:04:40.478Z,36.40
2022-12-11T03:05:40.451Z,35.40
2022-12-11T03:06:40.447Z,37.40
2022-12-11T03:07:40.452Z,28.80
2022-12-11T03:08:40.516Z,31.90
2022-12-11T03:09:40.394Z,30.20
2022-12-11T03:10:40.376Z,34.40
2022-12-11T03:11:40.349Z,35.50
2022-12-11T03:12:40.379Z,35.10
2022-12-11T03:13:40.322Z,37.40
2022-12-11T03:14:40.306Z,33.10
2022-12-11T03:15:40.274Z,33.20
2022-12-11T03:16:40.330Z,30.90
2022-12-11T03:17:40.268Z,29.70
2022-12-11T03:18:40.225Z,31.70
2022-12-11T03:19:40.206Z,31.30
2022-12-11T03:20:40.184Z,32.10
2022-12-11T03:21:40.159Z,29.70
2022-12-11T03:22:40.201Z,29.40
2022-12-11T03:23:40.126Z,29.90
2022-12-11T03:24:40.175Z,29.70
2022-12-11T03:25:40.084Z,32.20
2022-12-11T03:26:40.093Z,34.00
2022-12-11T03:27:40.088Z,31.90
2022-12-11T03:28:40.048Z,27.80
2022-12-11T03:29:40.024Z,27.90
2022-12-11T03:30:40.052Z,27.60
2022-12-11T03:31:39.986Z,27.40
2022-12-11T03:32:40.018Z,27.80
2022-12-11T03:33:39.969Z,30.20
2022-12-11T03:34:39.932Z,27.50
2022-12-11T03:35:39.931Z,27.50
2022-12-11T03:36:39.892Z,27.80
2022-12-11T03:37:39.911Z,24.30
2022-12-11T03:38:39.863Z,24.50
2022-12-11T03:39:39.862Z,24.50
2022-12-11T03:40:39.822Z,27.90
2022-12-11T03:41:39.845Z,25.60
2022-12-11T03:42:39.827Z,25.90
2022-12-11T03:43:39.786Z,26.40
2022-12-11T03:44:39.754Z,27.30
2022-12-11T03:45:39.747Z,26.10
2022-12-11T03:46:39.716Z,26.80
2022-12-11T03:47:39.727Z,26.40
2022-12-11T03:48:39.687Z,25.90
2022-12-11T03:49:39.665Z,24.40
2022-12-11T03:50:39.645Z,25.20
2022-12-11T03:51:39.632Z,26.90
2022-12-11T03:52:45.350Z,25.70
2022-12-11T03:53:41.596Z,29.30
2022-12-11T03:54:39.600Z,26.50
2022-12-11T03:55:39.561Z,28.80
2022-12-11T03:56:39.567Z,26.60
2022-12-11T03:57:39.802Z,25.80
2022-12-11T03:58:39.536Z,24.00
2022-12-11T03:59:39.488Z,23.20
2022-12-11T04:00:39.498Z,21.20
2022-12-11T04:01:39.480Z,23.10
2022-12-11T04:02:39.469Z,22.70
2022-12-11T04:03:39.426Z,25.10
2022-12-11T04:04:39.448Z,24.30
2022-12-11T04:05:39.386Z,27.70
2022-12-11T04:06:39.379Z,25.00
2022-12-11T04:07:40.386Z,27.40
2022-12-11T04:08:39.338Z,25.70
2022-12-11T04:09:39.314Z,26.20
2022-12-11T04:10:39.307Z,26.00
2022-12-11T04:11:39.280Z,26.60
2022-12-11T04:12:39.286Z,25.70
2022-12-11T04:13:39.239Z,26.10
2022-12-11T04:14:39.228Z,26.80
2022-12-11T04:15:39.264Z,26.40
2022-12-11T04:16:39.225Z,26.50
2022-12-11T04:17:39.206Z,24.30
2022-12-11T04:18:39.163Z,26.80
2022-12-11T04:19:40.136Z,24.20
2022-12-11T04:20:39.119Z,24.10
2022-12-11T04:21:39.773Z,24.80
2022-12-11T04:22:40.124Z,25.50
2022-12-11T04:23:39.073Z,25.80
2022-12-11T04:24:39.056Z,25.10
2022-12-11T04:25:39.047Z,25.20
2022-12-11T04:26:39.023Z,26.70
2022-12-11T04:27:39.047Z,25.80
2022-12-11T04:28:38.987Z,27.00
2022-12-11T04:29:38.976Z,27.70
2022-12-11T04:30:38.968Z,27.10
2022-12-11T04:31:38.930Z,31.00
2022-12-11T04:32:38.916Z,32.10
2022-12-11T04:33:38.928Z,29.60
2022-12-11T04:34:38.877Z,31.10
2022-12-11T04:35:38.859Z,29.80
2022-12-11T04:36:38.858Z,28.50
2022-12-11T04:37:38.829Z,30.60
2022-12-11T04:38:38.842Z,30.90
2022-12-11T04:39:38.790Z,29.80
2022-12-11T04:40:38.781Z,29.80
2022-12-11T04:41:38.757Z,29.20
2022-12-11T04:42:38.749Z,32.20
2022-12-11T04:43:38.763Z,34.10
2022-12-11T04:44:38.712Z,31.50
2022-12-11T04:45:38.697Z,29.00
2022-12-11T04:46:38.746Z,29.20
2022-12-11T04:47:38.653Z,31.70
2022-12-11T04:48:38.679Z,30.60
2022-12-11T04:49:38.636Z,33.60
2022-12-11T04:50:38.615Z,30.60
2022-12-11T04:51:38.583Z,31.70
2022-12-11T04:52:38.572Z,33.70
2022-12-11T04:53:38.586Z,31.00
2022-12-11T04:54:38.535Z,32.20
2022-12-11T04:55:38.536Z,29.00
2022-12-11T04:56:38.515Z,28.30
2022-12-11T04:57:38.496Z,30.80
2022-12-11T04:58:38.509Z,33.00
2022-12-11T04:59:38.457Z,32.20
2022-12-11T05:00:38.435Z,30.80
2022-12-11T05:01:38.482Z,30.30
2022-12-11T05:02:38.421Z,35.10
2022-12-11T05:03:38.406Z,34.50
2022-12-11T05:04:38.363Z,32.80
2022-12-11T05:05:38.353Z,33.20
2022-12-11T05:06:38.322Z,34.20
2022-12-11T05:07:38.335Z,33.10
2022-12-11T05:08:38.328Z,36.40
2022-12-11T05:09:38.270Z,36.90
2022-12-11T05:10:38.274Z,33.40
2022-12-11T05:11:38.238Z,36.00
2022-12-11T05:12:38.220Z,37.40
2022-12-11T05:13:38.246Z,32.70
2022-12-11T05:14:38.183Z,32.80
2022-12-11T05:15:38.250Z,34.00
2022-12-11T05:16:38.164Z,36.90
2022-12-11T05:17:38.137Z,34.70
2022-12-11T05:18:38.160Z,35.40
2022-12-11T05:19:38.099Z,36.70
2022-12-11T05:20:38.091Z,35.70
2022-12-11T05:21:38.074Z,37.10
2022-12-11T05:22:38.082Z,39.10
2022-12-11T05:23:38.063Z,35.90
2022-12-11T05:24:38.022Z,35.70
2022-12-11T05:25:37.991Z,36.70
2022-12-11T05:26:37.975Z,35.20
2022-12-11T05:27:37.952Z,35.70
2022-12-11T05:28:37.972Z,36.40
2022-12-11T05:29:37.934Z,37.60
2022-12-11T05:30:37.904Z,38.60
2022-12-11T05:31:37.962Z,35.90
2022-12-11T05:32:37.867Z,39.50
2022-12-11T05:33:37.871Z,41.90
2022-12-11T05:34:37.828Z,42.00
2022-12-11T05:35:37.816Z,40.10
2022-12-11T05:36:37.800Z,40.80
2022-12-11T05:37:37.799Z,37.00
2022-12-11T05:38:37.797Z,40.30
2022-12-11T05:39:38.741Z,41.70
2022-12-11T05:40:37.728Z,40.60
2022-12-11T05:41:37.718Z,36.50
2022-12-11T05:42:37.695Z,38.10
2022-12-11T05:43:37.704Z,37.20
2022-12-11T05:44:37.660Z,39.80
2022-12-11T05:45:37.648Z,37.20
2022-12-11T05:46:37.666Z,34.80
2022-12-11T05:47:37.613Z,36.00
2022-12-11T05:48:37.618Z,39.10
2022-12-11T05:49:37.560Z,36.10
2022-12-11T05:50:38.556Z,33.60
2022-12-11T05:51:37.537Z,35.30
2022-12-11T05:52:37.518Z,36.50
2022-12-11T05:53:37.529Z,33.50
2022-12-11T05:54:37.495Z,34.00
2022-12-11T05:55:37.467Z,36.40
2022-12-11T05:56:37.462Z,35.70
2022-12-11T05:57:37.434Z,37.90
2022-12-11T05:58:37.444Z,39.10
2022-12-11T05:59:37.403Z,35.80
2022-12-11T06:00:37.392Z,40.80
2022-12-11T06:01:37.417Z,39.90
2022-12-11T06:02:37.465Z,42.10
2022-12-11T06:03:37.363Z,36.90
2022-12-11T06:04:37.320Z,38.80
2022-12-11T06:05:37.284Z,36.60
2022-12-11T06:06:37.286Z,39.00
2022-12-11T06:07:37.265Z,38.80
2022-12-11T06:08:37.269Z,38.00
2022-12-11T06:09:37.216Z,38.70
2022-12-11T06:10:37.216Z,40.10
2022-12-11T06:11:38.186Z,40.30
2022-12-11T06:12:37.169Z,39.30
2022-12-11T06:13:37.179Z,40.30
2022-12-11T06:14:37.134Z,38.30
2022-12-11T06:15:37.131Z,40.10
2022-12-11T06:16:37.207Z,37.10
2022-12-11T06:17:37.140Z,43.10
2022-12-11T06:18:37.102Z,38.40
2022-12-11T06:19:37.332Z,44.00
2022-12-11T06:20:37.029Z,42.00
2022-12-11T06:21:37.022Z,39.80
2022-12-11T06:22:37.000Z,45.80
2022-12-11T06:23:37.005Z,44.00
2022-12-11T06:24:36.958Z,44.30
2022-12-11T06:25:36.946Z,48.50
2022-12-11T06:26:36.920Z,51.60
2022-12-11T06:27:36.911Z,53.70
2022-12-11T06:28:36.923Z,48.20
2022-12-11T06:29:36.875Z,46.50
2022-12-11T06:30:38.300Z,48.10
2022-12-11T06:31:41.620Z,48.10
2022-12-11T06:32:36.829Z,45.10
2022-12-11T06:33:36.852Z,47.20
2022-12-11T06:34:36.785Z,50.30
2022-12-11T06:35:41.912Z,48.30
2022-12-11T06:36:38.753Z,51.00
2022-12-11T06:37:36.732Z,47.30
2022-12-11T06:38:36.744Z,48.10
2022-12-11T06:39:36.710Z,50.20
2022-12-11T06:40:36.671Z,48.30
2022-12-11T06:41:36.659Z,51.00
2022-12-11T06:42:36.650Z,49.10
2022-12-11T06:43:36.667Z,56.00
2022-12-11T06:44:36.612Z,58.40
2022-12-11T06:45:36.615Z,54.60
2022-12-11T06:46:36.578Z,59.00
2022-12-11T06:47:36.556Z,60.30
2022-12-11T06:48:36.568Z,61.00
2022-12-11T06:49:36.526Z,55.10
2022-12-11T06:50:36.501Z,61.70
2022-12-11T06:51:36.478Z,59.30
2022-12-11T06:52:36.472Z,54.70
2022-12-11T06:53:36.482Z,62.60
2022-12-11T06:54:36.430Z,58.90
2022-12-11T06:55:36.410Z,61.80
2022-12-11T06:56:36.397Z,61.10
2022-12-11T06:57:36.374Z,50.50
2022-12-11T06:58:36.384Z,55.50
2022-12-11T06:59:36.356Z,49.40
2022-12-11T07:00:36.397Z,45.80
2022-12-11T07:01:36.298Z,49.60
2022-12-11T07:02:36.366Z,46.70
2022-12-11T07:03:36.303Z,50.30
2022-12-11T07:04:36.258Z,53.20
2022-12-11T07:05:36.247Z,44.00
2022-12-11T07:06:36.218Z,45.50
2022-12-11T07:07:36.215Z,46.10
2022-12-11T07:08:36.222Z,46.90
2022-12-11T07:09:36.176Z,50.10
2022-12-11T07:10:36.148Z,42.20
2022-12-11T07:11:36.163Z,45.50
2022-12-11T07:12:36.103Z,46.10
2022-12-11T07:13:36.128Z,45.90
2022-12-11T07:14:36.080Z,48.50
2022-12-11T07:15:40.231Z,45.30
2022-12-11T07:16:37.088Z,42.10
2022-12-11T07:17:36.017Z,44.20
2022-12-11T07:18:36.036Z,44.20
2022-12-11T07:19:35.989Z,44.70
2022-12-11T07:20:35.975Z,46.80
2022-12-11T07:21:35.958Z,43.40
2022-12-11T07:22:35.943Z,42.20
2022-12-11T07:23:35.963Z,51.10
2022-12-11T07:24:35.917Z,42.90
2022-12-11T07:25:35.883Z,46.80
2022-12-11T07:26:35.861Z,47.80
2022-12-11T07:27:35.849Z,46.10
2022-12-11T07:28:35.843Z,47.30
2022-12-11T07:29:35.853Z,45.40
2022-12-11T07:30:35.801Z,46.00
2022-12-11T07:31:35.814Z,48.50
2022-12-11T07:32:35.817Z,44.40
2022-12-11T07:33:35.755Z,50.60
2022-12-11T07:34:35.758Z,54.50
2022-12-11T07:35:36.712Z,53.60
2022-12-11T07:36:35.693Z,51.90
2022-12-11T07:37:35.668Z,45.20
2022-12-11T07:38:35.656Z,41.30
2022-12-11T07:39:35.665Z,43.60
2022-12-11T07:40:35.623Z,39.90
2022-12-11T07:41:35.602Z,44.20
2022-12-11T07:42:35.586Z,42.20
2022-12-11T07:43:35.561Z,42.80
2022-12-11T07:44:35.591Z,39.30
2022-12-11T07:45:35.581Z,39.00
2022-12-11T07:46:35.573Z,40.70
2022-12-11T07:47:35.511Z,42.20
2022-12-11T07:48:35.531Z,44.70
2022-12-11T07:49:35.515Z,40.90
2022-12-11T07:50:39.751Z,38.60
2022-12-11T07:51:36.440Z,40.70
2022-12-11T07:52:35.411Z,41.70
2022-12-11T07:53:35.420Z,40.80
2022-12-11T07:54:35.403Z,42.50
2022-12-11T07:55:35.366Z,39.20
2022-12-11T07:56:35.445Z,50.00
2022-12-11T07:57:35.388Z,48.60
2022-12-11T07:58:35.294Z,53.10
2022-12-11T07:59:35.315Z,46.70
2022-12-11T08:00:35.282Z,48.60
2022-12-11T08:01:35.272Z,52.20
2022-12-11T08:02:37.348Z,44.10
2022-12-11T08:03:36.220Z,48.00
2022-12-11T08:04:35.391Z,50.30
2022-12-11T08:05:35.179Z,47.60
2022-12-11T08:06:35.232Z,49.50
2022-12-11T08:07:35.143Z,51.70
2022-12-11T08:08:35.129Z,46.80
2022-12-11T08:09:35.158Z,51.90
2022-12-11T08:10:35.110Z,49.40
2022-12-11T08:11:35.091Z,52.80
2022-12-11T08:12:35.063Z,41.60
2022-12-11T08:13:35.022Z,42.00
2022-12-11T08:14:36.051Z,41.20
2022-12-11T08:15:36.006Z,39.90
2022-12-11T08:16:35.007Z,40.70
2022-12-11T08:17:39.823Z,44.20
2022-12-11T08:18:36.951Z,45.10
2022-12-11T08:19:34.971Z,39.90
2022-12-11T08:20:34.915Z,42.30
2022-12-11T08:21:34.899Z,45.50
2022-12-11T08:22:34.896Z,46.30
2022-12-11T08:23:34.852Z,52.40
2022-12-11T08:24:34.909Z,48.00
2022-12-11T08:25:34.821Z,45.90
2022-12-11T08:26:34.800Z,46.60
2022-12-11T08:27:34.786Z,51.40
2022-12-11T08:28:34.776Z,43.00
2022-12-11T08:29:34.780Z,44.40
2022-12-11T08:30:34.807Z,48.00
2022-12-11T08:31:34.715Z,46.20
2022-12-11T08:32:34.696Z,44.00
2022-12-11T08:33:34.675Z,46.30
2022-12-11T08:34:34.710Z,46.90
2022-12-11T08:35:34.650Z,42.90
2022-12-11T08:36:34.621Z,44.50
2022-12-11T08:37:34.612Z,46.00
2022-12-11T08:38:34.599Z,44.50
2022-12-11T08:39:34.609Z,42.40
2022-12-11T08:40:34.557Z,44.30
2022-12-11T08:41:34.543Z,43.60
2022-12-11T08:42:34.631Z,42.00
2022-12-11T08:43:34.507Z,42.40
2022-12-11T08:44:35.514Z,49.20
2022-12-11T08:45:34.474Z,44.50
2022-12-11T08:46:34.515Z,47.00
2022-12-11T08:47:34.542Z,50.30
2022-12-11T08:48:34.404Z,47.20
2022-12-11T08:49:34.856Z,49.40
2022-12-11T08:50:35.385Z,46.00
2022-12-11T08:51:34.368Z,47.50
2022-12-11T08:52:34.425Z,45.10
2022-12-11T08:53:34.324Z,42.90
2022-12-11T08:54:34.348Z,43.60
2022-12-11T08:55:34.290Z,47.20
2022-12-11T08:56:34.272Z,45.00
2022-12-11T08:57:34.280Z,48.10
2022-12-11T08:58:34.249Z,46.10
2022-12-11T08:59:34.306Z,46.40
2022-12-11T09:00:34.239Z,52.40
2022-12-11T09:01:34.277Z,47.80
2022-12-11T09:02:34.197Z,51.80
2022-12-11T09:03:34.142Z,49.30
2022-12-11T09:04:34.167Z,47.30
2022-12-11T09:05:34.107Z,50.50
2022-12-11T09:06:34.106Z,49.50
2022-12-11T09:07:34.087Z,50.10
2022-12-11T09:08:34.071Z,53.30
2022-12-11T09:09:34.074Z,51.90
2022-12-11T09:10:34.027Z,54.20
2022-12-11T09:11:34.014Z,52.40
2022-12-11T09:12:33.991Z,51.40
2022-12-11T09:13:33.972Z,53.90
2022-12-11T09:14:33.989Z,53.00
2022-12-11T09:15:34.007Z,52.00
2022-12-11T09:16:33.916Z,44.40
2022-12-11T09:17:33.905Z,47.50
2022-12-11T09:18:33.892Z,50.00
2022-12-11T09:19:33.907Z,45.80
2022-12-11T09:20:33.868Z,49.70
2022-12-11T09:21:33.843Z,49.80
2022-12-11T09:22:33.832Z,45.40
2022-12-11T09:23:33.808Z,46.40
2022-12-11T09:24:33.812Z,43.90
2022-12-11T09:25:33.770Z,48.30
2022-12-11T09:26:33.759Z,43.60
2022-12-11T09:27:33.731Z,49.80
2022-12-11T09:28:33.711Z,54.40
2022-12-11T09:29:33.728Z,54.50
2022-12-11T09:30:33.742Z,60.20
2022-12-11T09:31:33.663Z,60.30
2022-12-11T09:32:33.663Z,60.30
2022-12-11T09:33:33.643Z,57.30
2022-12-11T09:34:33.646Z,55.50
2022-12-11T09:35:33.606Z,60.80
2022-12-11T09:36:33.577Z,66.30
2022-12-11T09:37:33.563Z,60.80
2022-12-11T09:38:33.548Z,52.70
2022-12-11T09:39:33.565Z,52.90
2022-12-11T09:40:33.542Z,51.60
2022-12-11T09:41:33.525Z,48.60
2022-12-11T09:42:33.483Z,49.90
2022-12-11T09:43:33.452Z,50.80
2022-12-11T09:44:33.473Z,51.20
2022-12-11T09:45:33.419Z,51.70
2022-12-11T09:46:34.337Z,57.20
2022-12-11T09:47:34.476Z,49.00
2022-12-11T09:48:33.423Z,48.40
2022-12-11T09:49:33.520Z,45.40
2022-12-11T09:50:33.402Z,48.10
2022-12-11T09:51:33.360Z,43.70
2022-12-11T09:52:33.365Z,47.40
2022-12-11T09:53:34.406Z,42.60
2022-12-11T09:54:34.471Z,46.70
2022-12-11T09:55:33.351Z,48.20
2022-12-11T09:56:33.316Z,44.30
2022-12-11T09:57:33.305Z,42.70
2022-12-11T09:58:33.281Z,46.10
2022-12-11T09:59:33.249Z,46.30
2022-12-11T10:00:33.248Z,43.90
2022-12-11T10:01:33.267Z,48.40
2022-12-11T10:02:33.313Z,49.10
2022-12-11T10:03:33.201Z,52.10
2022-12-11T10:04:33.144Z,48.40
2022-12-11T10:05:33.139Z,53.10
2022-12-11T10:06:33.141Z,53.00
2022-12-11T10:07:33.081Z,46.80
2022-12-11T10:08:33.105Z,45.00
2022-12-11T10:09:33.161Z,48.40
2022-12-11T10:10:33.078Z,42.90
2022-12-11T10:11:33.046Z,43.20
2022-12-11T10:12:32.991Z,45.70
2022-12-11T10:13:32.986Z,47.30
2022-12-11T10:14:33.058Z,46.50
2022-12-11T10:15:33.067Z,45.10
2022-12-11T10:16:33.052Z,49.60
2022-12-11T10:17:32.879Z,51.80
2022-12-11T10:18:32.945Z,49.20
2022-12-11T10:19:32.903Z,49.70
2022-12-11T10:20:32.931Z,47.90
2022-12-11T10:21:32.931Z,50.40
2022-12-11T10:22:32.899Z,49.50
2022-12-11T10:23:32.860Z,51.80
2022-12-11T10:25:07.581Z,47.70
2022-12-11T10:25:34.882Z,50.00
2022-12-11T10:26:32.767Z,48.20
2022-12-11T10:27:32.802Z,52.40
2022-12-11T10:28:32.827Z,56.00
2022-12-11T10:29:32.740Z,57.90
2022-12-11T10:30:34.617Z,55.40
2022-12-11T10:31:33.728Z,53.40
2022-12-11T10:32:32.714Z,47.10
2022-12-11T10:33:32.632Z,48.50
2022-12-11T10:34:32.619Z,48.30
2022-12-11T10:35:32.683Z,49.30
2022-12-11T10:36:32.603Z,47.40
2022-12-11T10:37:32.563Z,45.80
2022-12-11T10:38:32.571Z,44.60
2022-12-11T10:39:32.570Z,43.70
2022-12-11T10:40:32.596Z,43.60
2022-12-11T10:41:32.502Z,42.80
2022-12-11T10:42:32.555Z,51.00
2022-12-11T10:43:32.498Z,50.90
2022-12-11T10:44:32.501Z,42.30
2022-12-11T10:45:32.453Z,52.80
2022-12-11T10:46:32.522Z,47.70
2022-12-11T10:47:32.406Z,54.40
2022-12-11T10:48:32.401Z,48.30
2022-12-11T10:49:32.396Z,52.60
2022-12-11T10:50:32.398Z,49.10
2022-12-11T10:51:32.342Z,50.10
2022-12-11T10:52:32.309Z,48.70
2022-12-11T10:53:32.339Z,45.70
2022-12-11T10:54:32.281Z,52.70
2022-12-11T10:55:32.342Z,46.80
2022-12-11T10:56:32.203Z,49.70
2022-12-11T10:57:32.310Z,47.70
2022-12-11T10:58:32.287Z,53.60
2022-12-11T10:59:32.273Z,49.00
2022-12-11T11:00:32.242Z,46.00
2022-12-11T11:01:32.240Z,57.70
2022-12-11T11:02:32.168Z,50.20
2022-12-11T11:03:32.223Z,54.50
2022-12-11T11:04:32.153Z,55.50
2022-12-11T11:05:32.176Z,55.00
2022-12-11T11:06:32.111Z,50.00
2022-12-11T11:07:32.072Z,59.70
2022-12-11T11:08:32.133Z,53.70
2022-12-11T11:09:32.023Z,66.50
2022-12-11T11:10:32.045Z,54.80
2022-12-11T11:11:33.735Z,59.70
2022-12-11T11:12:31.991Z,62.10
2022-12-11T11:13:31.949Z,59.80
2022-12-11T11:14:31.925Z,59.30
2022-12-11T11:15:31.971Z,100.40
2022-12-11T11:16:31.908Z,204.40
2022-12-11T11:17:34.919Z,162.10
2022-12-11T11:18:32.883Z,146.60
2022-12-11T11:19:31.835Z,79.20
2022-12-11T11:20:31.891Z,65.50
2022-12-11T11:21:31.817Z,62.20
2022-12-11T11:22:31.779Z,57.60
2022-12-11T11:23:31.775Z,59.40
2022-12-11T11:24:31.799Z,58.70
2022-12-11T11:25:31.804Z,53.00
2022-12-11T11:26:56.560Z,53.60
2022-12-11T11:27:33.739Z,58.50
2022-12-11T11:28:31.709Z,56.00
2022-12-11T11:29:31.619Z,60.20
2022-12-11T11:30:31.623Z,55.00
2022-12-11T11:31:31.614Z,54.50
2022-12-11T11:32:31.574Z,49.20
2022-12-11T11:33:31.591Z,54.20
2022-12-11T11:34:31.531Z,53.60
2022-12-11T11:35:31.595Z,49.10
2022-12-11T11:36:31.501Z,49.40
2022-12-11T11:37:31.491Z,43.00
2022-12-11T11:38:31.463Z,43.90
2022-12-11T11:39:31.444Z,48.70
2022-12-11T11:40:31.451Z,46.90
2022-12-11T11:41:31.408Z,44.00
2022-12-11T11:42:31.395Z,53.90
2022-12-11T11:43:31.369Z,45.90
2022-12-11T11:44:31.375Z,52.10
2022-12-11T11:45:31.374Z,52.30
2022-12-11T11:46:31.343Z,49.30
2022-12-11T11:47:31.313Z,55.20
2022-12-11T11:48:31.301Z,48.60
2022-12-11T11:49:31.279Z,47.40
2022-12-11T11:50:31.283Z,49.50
2022-12-11T11:51:31.240Z,53.70
2022-12-11T11:52:31.227Z,51.90
2022-12-11T11:53:31.200Z,50.90
2022-12-11T11:54:31.191Z,52.60
2022-12-11T11:55:31.195Z,51.60
2022-12-11T11:56:31.152Z,52.90
2022-12-11T11:57:31.128Z,55.00
2022-12-11T11:58:31.129Z,53.50
2022-12-11T11:59:31.093Z,58.10
2022-12-11T12:00:33.962Z,61.30
2022-12-11T12:01:32.080Z,52.30
2022-12-11T12:02:31.098Z,51.50
2022-12-11T12:03:31.045Z,55.90
2022-12-11T12:04:31.025Z,57.80
2022-12-11T12:05:31.032Z,47.90
2022-12-11T12:06:30.992Z,51.80
2022-12-11T12:07:30.964Z,48.70
2022-12-11T12:08:30.950Z,53.40
2022-12-11T12:09:30.963Z,57.50
2022-12-11T12:10:30.981Z,55.00
2022-12-11T12:11:30.895Z,55.00
2022-12-11T12:12:33.966Z,52.40
2022-12-11T12:13:49.185Z,52.30
2022-12-11T12:14:59.769Z,56.50
2022-12-11T12:15:32.890Z,57.10
2022-12-11T12:16:53.135Z,53.10
2022-12-11T12:17:32.847Z,48.40
2022-12-11T12:18:30.777Z,49.40
2022-12-11T12:19:30.768Z,52.90
2022-12-11T12:20:30.783Z,56.90
2022-12-11T12:21:30.734Z,59.10
2022-12-11T12:22:30.702Z,54.60
2022-12-11T12:23:36.325Z,54.90
2022-12-11T12:24:32.674Z,56.20
2022-12-11T12:25:30.681Z,56.50
2022-12-11T12:26:30.639Z,55.10
2022-12-11T12:27:51.664Z,60.20
2022-12-11T12:28:32.680Z,58.80
2022-12-11T12:29:30.590Z,60.00
2022-12-11T12:30:31.113Z,59.60
2022-12-11T12:31:30.690Z,55.00
2022-12-11T12:32:30.564Z,59.00
2022-12-11T12:33:30.520Z,60.00
2022-12-11T12:34:30.514Z,56.20
2022-12-11T12:35:30.514Z,55.40
2022-12-11T12:36:30.475Z,58.10
2022-12-11T12:37:30.449Z,55.50
2022-12-11T12:38:30.512Z,54.40
2022-12-11T12:39:30.410Z,52.10
2022-12-11T12:40:30.440Z,51.50
2022-12-11T12:41:30.371Z,54.90
2022-12-11T12:42:30.357Z,52.20
2022-12-11T12:43:30.346Z,50.80
2022-12-11T12:44:30.327Z,54.20
2022-12-11T12:45:30.411Z,53.20
2022-12-11T12:46:30.305Z,54.40
2022-12-11T12:47:30.277Z,50.60
2022-12-11T12:48:30.249Z,58.10
2022-12-11T12:49:30.242Z,63.70
2022-12-11T12:50:30.256Z,57.90
2022-12-11T12:51:30.220Z,55.10
2022-12-11T12:52:30.203Z,55.30